Aviation Digital Data Service (ADDS)

Output produced by METARs form (1833 UTC 19 April 2019)
found at http://www.aviationweather.gov/metar/data/
 
Forecast for: NGTA (TARAWA KIRIBATI , FJ)
Text: TAF NGTA 191705Z 1918/2018 32008KT 9000 -SHRA SCT015 BKN030 OVC080
Forecast period: 1800 UTC 19 April 2019 to 1800 UTC 20 April 2019
Forecast type: FROM: standard forecast or significant change
Winds: from the NW (320 degrees) at 9 MPH (8 knots; 4.1 m/s)
Visibility: 6 miles (9 km)
Ceiling: 3000 feet AGL
Clouds: scattered clouds at 1500 feet AGL
broken clouds at 3000 feet AGL
overcast cloud deck at 8000 feet AGL
Weather: -SHRA  (light rain showers)
Text: TEMPO 1918/2018 3000 TSRA BKN015 FEW015CB
Forecast period: 1800 UTC 19 April 2019 to 1800 UTC 20 April 2019
Forecast type: TEMPORARY: The following changes expected for less than half the time period
Visibility: 1.86 miles (2.99 km)
Ceiling: 1500 feet AGL
Clouds: broken clouds at 1500 feet AGL
few clouds at 1500 feet AGL
Weather: TSRA  (rain associated with thunderstorm(s))